Terminal Aerodrome Forecast
Issued by NWS Atlanta, GA

Home | Current Version | Previous Version | Text Only | Print | Product List | Glossary On
Versions: 1 2 3 4 5 6 7 8 9 10 11 12 13 14 15 16 17 18 19 20 21 22 23 24 25 26 27 28 29 30 31 32 33 34 35 36 37
000
FTUS42 KFFC 191900 AAA
TAFAHN
TAF AMD
KAHN 191901Z 1919/2018 05014G24KT 6SM -DZ OVC015
     FM200100 05012KT P6SM SCT015 OVC025
     FM201200 05013G23KT P6SM BKN040=

USA.gov is the U.S. government's official web portal to all federal, state and local government web resources and services.